• Join FlightAware (Why Join?)
  • Login
  • US Flag 
03:01PM EST


 

Airport Tracker/Info


-or-


 

Live Flight TrackerFlight Track Log ✈ EJA583 ✈ 19-Jul-2013 ✈ KMVY - KTEB

Flight Track Log - Related Links

Times and Time Zones

All times are in EDT time to prevent confusion due to time zone crossing. See the EJA583 flight status page for this flight to view local times or setup timezone preferences in your user account.

Time Position Orientation Groundspeed Altitude Reporting Facility
EDT Latitude Longitude Course Direction KTS MPH feet Rate Location/Type
09:40AM 41.3650 -70.6478 244° Southwest 178 205 1,700  Level Boston Center
09:41AM 41.3431 -70.7064 244° Southwest 190 219 4,000 2,460 Climbing Boston Center
09:42AM 41.3669 -70.7750 295° West 207 238 6,700 2,700 Climbing Boston Center
09:43AM 41.4275 -70.7900 349° North 216 249 9,400 2,400 Climbing Boston Center
09:44AM 41.4931 -70.8603 321° Northwest 253 291 11,600 2,040 Climbing Boston Center
09:45AM 41.5278 -70.9456 299° West 280 322 13,500 1,200 Climbing Boston Center
09:46AM 41.5750 -71.0608 299° West 310 357 14,000 240 Climbing Boston Center
09:47AM 41.6178 -71.1628 299° West 345 397 14,000  Level Boston Center
09:48AM 41.6672 -71.2867 298° West 345 397 14,000  Level Boston Center
09:49AM 41.7100 -71.3917 299° West 345 397 14,000  Level Boston Center
09:50AM 41.7714 -71.5075 305° West 350 403 14,000  Level Boston Center
09:51AM 41.8283 -71.6153 305° West 356 410 14,000  Level Boston Center
09:52AM 41.8814 -71.7236 303° West 351 404 14,000  Level Boston Center
09:53AM 41.9175 -71.8431 292° West 346 398 14,000  Level Boston Center
09:54AM 41.9472 -71.9544 290° West 352 405 14,000  Level Boston Center
09:55AM 41.9850 -72.0881 291° West 352 405 14,000  Level Boston Center
09:56AM 42.0167 -72.1969 291° West 352 405 14,000  Level Boston Center
09:57AM 42.0544 -72.3311 291° West 352 405 14,000  Level Boston Center
09:58AM 42.0856 -72.4428 291° West 352 405 14,000  Level Boston Center
09:59AM 42.0919 -72.5772 274° West 339 390 14,000  Level Boston Center
10:00AM 42.0708 -72.6917 256° West 339 390 14,000  Level Boston Center
10:01AM 42.0497 -72.8175 257° West 349 402 14,000  Level Boston Center
10:02AM 42.0283 -72.9572 258° West 349 402 14,000  Level Boston Center
10:03AM 42.0108 -73.0856 260° West 355 409 14,000  Level Boston Center
10:04AM 41.9892 -73.2083 257° West 355 409 14,000  Level Boston Center
10:05AM 41.9675 -73.3336 257° West 355 409 14,000  Level Boston Center
10:06AM 41.9478 -73.4617 258° West 355 409 14,000  Level Boston Center
10:07AM 41.9278 -73.5842 258° West 350 403 14,000  Level Boston Center
10:08AM 41.9036 -73.7092 255° West 355 409 14,000  Level Boston Center
10:09AM 41.8878 -73.8094 258° West 349 402 14,000  Level Boston Center
10:10AM 41.8608 -73.9564 256° West 349 402 14,000 -240 Level Boston Center
10:11AM 41.8425 -74.0703 258° West 349 402 13,600 -900 Descending Boston Center
10:12AM 41.8219 -74.1894 257° West 339 390 12,200 -1,320 Descending Boston Center
10:13AM 41.8014 -74.3058 257° West 308 354 11,000 -1,020 Descending Boston Center
10:14AM 41.7711 -74.3803 241° Southwest 270 311 10,200 -960 Descending Boston Center
10:15AM 41.6931 -74.4281 205° Southwest 256 295 9,100 -1,020 Descending Boston Center
10:16AM 41.6319 -74.4622 203° Southwest 273 314 8,200 -600 Descending Boston Center
10:17AM 41.5561 -74.5069 204° Southwest 279 321 8,000 -300 Descending Boston Center
10:18AM 41.4931 -74.5436 204° Southwest 274 315 7,600 -360 Descending Boston Center
10:20AM 41.3333 -74.6167 199° South 270 311 7,000 -240 Descending New York TRACON
10:21AM 41.2667 -74.6500 201° Southwest 268 308 7,000 -120 Level New York TRACON
10:22AM 41.2000 -74.6667 191° South 271 312 6,800 -900 Descending New York TRACON
10:23AM 41.1167 -74.6667 180° South 257 296 5,300 -1,260 Descending New York TRACON
10:24AM 41.0500 -74.6500 169° South 271 312 4,300 -660 Descending New York TRACON
10:25AM 41.0333 -74.5500 102° East 293 337 4,000 -420 Descending New York TRACON
10:26AM 41.0167 -74.4500 102° East 281 323 3,500 -540 Descending New York TRACON
10:27AM 41.0167 -74.3500 90° East 264 304 3,000 -300 Descending New York TRACON
10:28AM 41.0167 -74.2667 90° East 253 291 3,000 -60 Level New York TRACON
10:29AM 40.9833 -74.1833 118° Southeast 233 268 2,900 -540 Descending New York TRACON
10:30AM 40.9833 -74.1000 90° East 233 268 2,000 -540 Descending New York TRACON
10:31AM 40.9500 -74.0500 131° Southeast 193 222 1,900 -480 Descending New York TRACON
10:32AM 40.9167 -74.0500 180° South 140 161 1,100 -780 Descending New York TRACON
10:33AM 40.8667 -74.0667 194° South 127 146 400 -720 Descending New York TRACON
10:35AM 40.8500 -74.0500 114° Southeast  Level FlightAware Approximate